Time;durP1;ratioP1;P1;durP2;ratioP2;P2;SDS_P1;SDS_P2;PMS_P1;PMS_P2;Temp;Humidity;BMP_temperature;BMP_pressure;BME280_temperature;BME280_humidity;BME280_pressure;Samples;Min_cycle;Max_cycle;Signal;HPM_P1;HPM_P2
2021/07/19 00:09:20;;;;;;;11.55;6.55;;;;;;;17.85;63.91;99445.05;520310;1089;117299;-58
2021/07/19 00:19:27;;;;;;;11.07;8.10;;;;;;;17.69;64.37;99440.39;531207;1089;116155;-58
2021/07/19 00:29:34;;;;;;;8.97;7.53;;;;;;;17.46;64.75;99434.63;531260;1090;116695;-58
2021/07/19 00:39:40;;;;;;;8.23;6.30;;;;;;;17.31;65.24;99442.23;530574;1090;116969;-58
2021/07/19 00:49:47;;;;;;;11.27;7.33;;;;;;;17.19;65.48;99434.45;531275;1090;116652;-58
2021/07/19 00:59:57;;;;;;;10.43;7.20;;;;;;;17.00;65.77;99443.31;531267;1088;116570;-58
2021/07/19 01:10:06;;;;;;;11.23;5.73;;;;;;;16.86;65.98;99457.84;531316;1089;117724;-59
2021/07/19 01:20:13;;;;;;;8.43;6.00;;;;;;;16.82;66.26;99448.48;531180;1088;116571;-58
2021/07/19 01:30:19;;;;;;;8.40;7.07;;;;;;;16.70;66.59;99449.63;530561;1090;116865;-58
2021/07/19 01:40:26;;;;;;;8.53;5.97;;;;;;;16.52;66.85;99456.47;531278;1089;116119;-58
2021/07/19 01:50:33;;;;;;;12.77;7.40;;;;;;;16.44;67.14;99458.16;531280;1090;116286;-59
2021/07/19 02:00:40;;;;;;;10.33;6.83;;;;;;;16.36;67.93;99456.21;530535;1089;116613;-59
2021/07/19 02:10:50;;;;;;;11.10;6.83;;;;;;;16.21;68.50;99464.55;531254;1090;116519;-59
2021/07/19 02:21:05;;;;;;;8.90;6.80;;;;;;;16.06;68.97;99468.58;530371;1089;117770;-58
2021/07/19 02:31:15;;;;;;;8.63;6.13;;;;;;;15.97;69.54;99462.30;531192;1089;116657;-58
2021/07/19 02:41:23;;;;;;;7.97;6.50;;;;;;;15.91;69.85;99465.48;531190;1089;116411;-58
2021/07/19 02:51:32;;;;;;;9.70;7.27;;;;;;;15.78;70.00;99469.18;530482;1089;117180;-58
2021/07/19 03:01:39;;;;;;;10.48;6.93;;;;;;;15.79;70.11;99465.56;525255;1089;117567;-58
2021/07/19 03:11:47;;;;;;;;;;;;;;;15.97;70.57;99476.36;531332;1090;116942;-59
2021/07/19 03:21:57;;;;;;;9.40;6.67;;;;;;;17.05;69.88;99469.41;531422;1089;103753;-59
2021/07/19 03:32:04;;;;;;;16.80;7.40;;;;;;;17.05;68.74;99469.41;531274;1090;117300;-59
2021/07/19 03:42:13;;;;;;;8.80;6.43;;;;;;;16.99;68.41;99478.73;530483;1090;117440;-59
2021/07/19 03:52:20;;;;;;;7.63;6.83;;;;;;;17.12;68.10;99485.58;518902;1090;116776;-58
2021/07/19 04:02:28;;;;;;;8.90;6.93;;;;;;;17.35;67.82;99491.39;528549;1089;116863;-59
2021/07/19 04:12:36;;;;;;;9.08;6.18;;;;;;;19.12;68.03;99486.74;530509;1090;117153;-58
2021/07/19 04:22:44;;;;;;;7.43;6.03;;;;;;;25.08;59.58;99495.16;531264;1089;117018;-58
2021/07/19 04:32:51;;;;;;;7.23;5.60;;;;;;;29.37;52.04;99498.45;531133;1089;116554;-58
2021/07/19 04:42:58;;;;;;;5.70;5.15;;;;;;;33.20;45.23;99494.36;531262;1088;117644;-59
2021/07/19 04:53:04;;;;;;;11.23;4.80;;;;;;;35.47;40.39;99489.38;531288;1089;117237;-59
2021/07/19 05:03:13;;;;;;;7.07;5.60;;;;;;;37.18;36.15;99491.45;530573;1089;116924;-59
2021/07/19 05:13:21;;;;;;;7.45;5.30;;;;;;;38.59;33.83;99487.66;531312;1089;116139;-59
2021/07/19 05:23:28;;;;;;;5.83;4.60;;;;;;;40.22;29.99;99491.72;531304;1089;117125;-60
2021/07/19 05:33:35;;;;;;;6.67;4.77;;;;;;;41.54;28.60;99496.20;530483;1090;118007;-59
2021/07/19 05:43:41;;;;;;;3.77;3.33;;;;;;;42.78;25.91;99491.64;531347;1090;117074;-59
2021/07/19 05:53:48;;;;;;;5.13;4.15;;;;;;;43.27;24.46;99488.89;531317;1089;116389;-59
2021/07/19 06:03:54;;;;;;;5.75;4.10;;;;;;;43.63;22.77;99490.59;530877;1089;116601;-58
2021/07/19 06:14:00;;;;;;;5.50;3.37;;;;;;;45.86;21.46;99507.02;531207;1090;117335;-60
2021/07/19 06:24:07;;;;;;;4.68;4.08;;;;;;;44.25;20.95;99504.45;530538;1089;116254;-59
2021/07/19 06:34:15;;;;;;;6.55;4.53;;;;;;;45.26;19.12;99504.30;531242;1089;117124;-59
2021/07/19 06:44:21;;;;;;;7.10;4.67;;;;;;;44.04;19.37;99509.83;531183;1089;116778;-59
2021/07/19 06:54:28;;;;;;;6.93;4.90;;;;;;;42.66;20.15;99511.54;530586;1088;116424;-59
2021/07/19 07:04:35;;;;;;;14.98;5.50;;;;;;;41.15;20.75;99509.36;531541;1089;116362;-61
2021/07/19 07:14:41;;;;;;;4.83;4.45;;;;;;;39.89;20.72;99524.65;531689;1089;116310;-63
2021/07/19 07:24:47;;;;;;;8.17;5.23;;;;;;;34.78;24.35;99519.22;530344;1090;116057;-63
2021/07/19 07:34:54;;;;;;;5.93;5.13;;;;;;;33.79;26.33;99518.27;513404;1090;10001856;-62
2021/07/19 07:45:01;;;;;;;4.90;4.47;;;;;;;33.49;27.00;99508.64;528923;1088;118181;-62
2021/07/19 07:55:09;;;;;;;7.67;5.70;;;;;;;34.75;27.99;99500.67;531538;1089;116330;-63
2021/07/19 08:05:16;;;;;;;7.90;4.60;;;;;;;37.04;24.62;99496.68;530061;1090;116548;-59
2021/07/19 08:15:23;;;;;;;10.25;4.50;;;;;;;33.25;27.27;99499.88;530039;1088;116613;-62
2021/07/19 08:25:30;;;;;;;9.90;5.10;;;;;;;30.44;29.77;99490.86;531913;1088;116937;-62
2021/07/19 08:35:36;;;;;;;8.50;5.90;;;;;;;29.56;31.52;99496.59;531830;1088;117463;-61
2021/07/19 08:45:44;;;;;;;5.40;4.80;;;;;;;29.09;32.62;99495.19;530767;1089;116487;-63
2021/07/19 08:55:52;;;;;;;7.97;4.93;;;;;;;28.78;34.04;99487.97;531772;1089;116576;-60
2021/07/19 09:05:59;;;;;;;12.17;5.93;;;;;;;28.73;34.19;99471.59;530955;1090;116828;-58
2021/07/19 09:16:06;;;;;;;5.20;4.63;;;;;;;28.20;34.86;99474.47;526967;1089;116739;-60
2021/07/19 09:26:12;;;;;;;6.43;5.10;;;;;;;27.77;35.39;99478.63;531223;1090;117976;-60
2021/07/19 09:36:26;;;;;;;9.28;5.75;;;;;;;27.69;35.97;99484.25;518999;1090;116297;-60
2021/07/19 09:46:37;;;;;;;8.30;5.67;;;;;;;28.24;35.45;99489.20;531171;1088;116745;-60
2021/07/19 09:56:43;;;;;;;11.10;7.27;;;;;;;28.04;35.95;99481.17;531300;1090;117033;-60
2021/07/19 10:06:51;;;;;;;6.93;6.23;;;;;;;28.27;36.11;99479.02;530651;1089;117774;-59
2021/07/19 10:16:59;;;;;;;8.03;5.30;;;;;;;28.35;35.54;99482.27;531315;1089;117823;-59
2021/07/19 10:27:11;;;;;;;7.37;5.20;;;;;;;27.83;36.02;99469.69;530603;1088;117753;-60
2021/07/19 10:37:22;;;;;;;7.23;4.83;;;;;;;26.68;36.98;99468.25;531185;1089;116317;-59
2021/07/19 10:47:28;;;;;;;6.33;5.23;;;;;;;26.25;38.32;99458.70;531392;1089;116348;-60
2021/07/19 10:57:39;;;;;;;9.75;5.03;;;;;;;26.80;37.72;99449.61;530450;1089;116175;-59
2021/07/19 11:07:46;;;;;;;5.23;4.70;;;;;;;26.16;38.14;99445.41;531104;1089;116645;-58
2021/07/19 11:17:53;;;;;;;7.00;4.28;;;;;;;25.67;39.20;99443.83;513456;1090;10113574;-58
2021/07/19 11:28:00;;;;;;;8.90;4.20;;;;;;;24.72;39.76;99451.30;519669;1089;116241;-60
2021/07/19 11:38:15;;;;;;;7.45;5.10;;;;;;;24.04;42.14;99436.44;513106;1089;116353;-58
2021/07/19 11:48:25;;;;;;;6.70;4.30;;;;;;;24.23;42.13;99423.43;530949;1089;116408;-59
2021/07/19 11:58:32;;;;;;;5.53;4.03;;;;;;;24.67;41.44;99400.04;531691;1088;116871;-59
2021/07/19 12:08:39;;;;;;;6.87;4.30;;;;;;;24.77;41.78;99380.95;531667;1089;171927;-58
2021/07/19 12:18:49;;;;;;;5.83;4.10;;;;;;;24.80;41.82;99383.23;512169;1089;116698;-57
2021/07/19 12:28:58;;;;;;;7.25;4.85;;;;;;;25.50;41.30;99368.91;531644;1088;117160;-58
2021/07/19 12:39:08;;;;;;;4.73;3.90;;;;;;;26.21;39.88;99365.98;515295;1089;117473;-59
2021/07/19 12:49:25;;;;;;;6.85;4.48;;;;;;;25.94;40.48;99382.89;531783;1088;116655;-57
2021/07/19 12:59:32;;;;;;;7.97;5.17;;;;;;;25.19;41.58;99389.03;531706;1089;116152;-58
2021/07/19 13:09:40;;;;;;;11.33;4.87;;;;;;;24.50;43.10;99396.81;517340;1087;116272;-57
2021/07/19 13:19:50;;;;;;;8.87;5.60;;;;;;;23.63;46.31;99394.94;531382;1089;116303;-57
2021/07/19 13:29:59;;;;;;;6.87;5.13;;;;;;;23.54;47.75;99397.92;530398;1089;117735;-58
2021/07/19 13:40:13;;;;;;;10.83;5.23;;;;;;;23.60;47.60;99381.08;525754;1088;115824;-55
2021/07/19 13:50:20;;;;;;;9.03;5.53;;;;;;;23.88;47.11;99366.95;531016;1089;115935;-57
2021/07/19 14:00:27;;;;;;;7.00;5.10;;;;;;;24.28;46.08;99377.25;530393;1088;116997;-57
2021/07/19 14:10:34;;;;;;;9.53;4.87;;;;;;;24.31;45.58;99375.02;530947;1090;117157;-57
2021/07/19 14:20:41;;;;;;;9.20;5.27;;;;;;;23.67;45.82;99381.99;516317;1090;116177;-57
2021/07/19 14:30:47;;;;;;;9.03;5.37;;;;;;;23.13;47.39;99377.81;513172;1089;116005;-56
2021/07/19 14:41:01;;;;;;;7.83;5.10;;;;;;;23.04;48.17;99385.94;516756;1088;116255;-57
2021/07/19 14:51:10;;;;;;;8.67;5.60;;;;;;;23.63;48.09;99378.86;530351;1090;116374;-58
2021/07/19 15:01:16;;;;;;;6.73;5.23;;;;;;;23.86;47.95;99374.36;524228;1089;116502;-57
2021/07/19 15:11:23;;;;;;;7.83;5.70;;;;;;;23.68;47.34;99380.97;531075;1089;116572;-58
2021/07/19 15:21:29;;;;;;;8.00;5.27;;;;;;;23.64;48.55;99375.16;530042;1089;116398;-63
2021/07/19 15:31:37;;;;;;;10.40;6.13;;;;;;;23.60;48.21;99367.68;531321;1089;119137;-60
2021/07/19 15:41:44;;;;;;;9.40;6.05;;;;;;;23.66;47.55;99374.98;531846;1090;116111;-66
2021/07/19 15:51:50;;;;;;;12.50;5.83;;;;;;;23.76;46.99;99371.98;531119;1090;116756;-59
2021/07/19 16:01:56;;;;;;;9.57;5.93;;;;;;;23.50;47.13;99374.20;528975;1089;117859;-59
2021/07/19 16:12:03;;;;;;;11.10;6.00;;;;;;;23.19;47.57;99371.70;531077;1089;117342;-59
2021/07/19 16:22:11;;;;;;;8.00;5.58;;;;;;;23.13;48.24;99369.78;525736;1088;118134;-59
2021/07/19 16:32:17;;;;;;;10.30;5.67;;;;;;;23.01;48.44;99362.22;531653;1088;115636;-59
2021/07/19 16:42:24;;;;;;;14.33;5.97;;;;;;;22.83;49.36;99372.45;530564;1090;116547;-58
2021/07/19 16:52:30;;;;;;;9.23;5.43;;;;;;;22.82;50.16;99379.67;531466;1089;116688;-58
2021/07/19 17:02:37;;;;;;;15.50;8.67;;;;;;;22.54;50.76;99388.29;513457;1088;20001446;-56
2021/07/19 17:12:44;;;;;;;25.63;8.27;;;;;;;22.07;52.21;99390.98;530578;1090;117013;-55
2021/07/19 17:22:52;;;;;;;11.27;6.77;;;;;;;21.79;53.08;99396.87;529056;1089;116227;-52
2021/07/19 17:32:59;;;;;;;11.17;6.57;;;;;;;21.54;53.80;99394.30;528825;1090;176073;-57
2021/07/19 17:43:06;;;;;;;21.10;9.03;;;;;;;21.34;54.48;99391.20;531349;1090;118809;-56
2021/07/19 17:53:13;;;;;;;12.33;6.33;;;;;;;21.30;55.21;99399.73;531669;1089;116488;-56
2021/07/19 18:03:20;;;;;;;9.07;6.40;;;;;;;21.20;55.41;99408.80;513241;1088;117073;-54
2021/07/19 18:13:27;;;;;;;12.13;7.00;;;;;;;20.86;56.14;99394.70;516264;1090;116443;-55
2021/07/19 18:23:39;;;;;;;10.50;6.47;;;;;;;20.72;56.63;99390.04;513328;1089;116946;-53
2021/07/19 18:33:46;;;;;;;8.50;6.27;;;;;;;20.70;57.06;99408.06;512650;1088;116965;-52
2021/07/19 18:43:53;;;;;;;8.60;6.00;;;;;;;20.51;57.56;99417.25;531354;1089;116793;-55
2021/07/19 18:53:59;;;;;;;10.20;6.63;;;;;;;20.44;58.06;99419.75;530512;1090;116743;-55
2021/07/19 19:04:06;;;;;;;7.33;6.23;;;;;;;20.36;57.31;99420.56;531327;1089;117221;-55
2021/07/19 19:14:13;;;;;;;10.70;7.00;;;;;;;20.28;56.57;99439.24;531693;1089;117214;-57
2021/07/19 19:24:20;;;;;;;11.10;6.15;;;;;;;20.19;56.59;99433.05;512696;1089;10001755;-56
2021/07/19 19:34:28;;;;;;;10.30;6.23;;;;;;;20.06;56.48;99438.03;531097;1089;117284;-56
2021/07/19 19:44:35;;;;;;;9.43;7.00;;;;;;;19.84;57.52;99459.77;531065;1089;116539;-56
2021/07/19 19:54:42;;;;;;;12.53;6.20;;;;;;;19.76;58.87;99451.75;530451;1089;117170;-53
2021/07/19 20:04:50;;;;;;;8.15;6.23;;;;;;;19.81;59.35;99453.93;531487;1088;117858;-53
2021/07/19 20:14:57;;;;;;;10.30;6.10;;;;;;;19.82;59.45;99459.11;530754;1088;116469;-57
2021/07/19 20:25:05;;;;;;;12.13;5.60;;;;;;;19.66;60.04;99462.55;531324;1088;116590;-57
2021/07/19 20:35:13;;;;;;;12.17;6.37;;;;;;;19.50;58.21;99462.47;531331;1089;117456;-59
2021/07/19 20:45:21;;;;;;;19.10;8.73;;;;;;;19.31;57.16;99462.55;530559;1089;116710;-54
2021/07/19 20:55:28;;;;;;;13.50;6.05;;;;;;;19.09;56.55;99460.42;530631;1088;116657;-56
2021/07/19 21:05:35;;;;;;;15.77;8.57;;;;;;;18.83;55.60;99450.59;530878;1089;118015;-59
2021/07/19 21:15:42;;;;;;;12.53;7.43;;;;;;;18.56;56.06;99450.55;519021;1088;116860;-56
2021/07/19 21:25:48;;;;;;;11.40;6.13;;;;;;;18.22;57.33;99445.94;531545;1089;117064;-55
2021/07/19 21:35:54;;;;;;;13.57;6.30;;;;;;;17.85;57.78;99450.37;518878;1089;116977;-49
2021/07/19 21:46:01;;;;;;;11.50;5.53;;;;;;;17.48;58.97;99453.89;530759;1089;184570;-56
2021/07/19 21:56:08;;;;;;;11.40;5.55;;;;;;;17.25;59.00;99464.88;518072;1088;117635;-56
2021/07/19 22:06:16;;;;;;;15.97;6.70;;;;;;;17.27;57.70;99459.43;530037;1089;118193;-57
2021/07/19 22:16:22;;;;;;;7.75;5.70;;;;;;;17.06;58.00;99463.12;515199;1089;117168;-55
2021/07/19 22:26:30;;;;;;;9.60;4.73;;;;;;;16.83;58.06;99465.25;513822;1090;116238;-53
2021/07/19 22:36:38;;;;;;;9.43;5.75;;;;;;;16.45;59.24;99473.93;514191;1090;115493;-54
2021/07/19 22:46:45;;;;;;;14.15;5.45;;;;;;;16.17;59.15;99475.58;514793;1090;115903;-51
2021/07/19 22:56:52;;;;;;;8.83;5.40;;;;;;;15.98;60.45;99466.63;513145;1090;116544;-54
2021/07/19 23:06:59;;;;;;;6.90;4.70;;;;;;;15.90;60.64;99483.19;514723;1090;115949;-51
2021/07/19 23:17:06;;;;;;;7.20;5.15;;;;;;;15.83;61.12;99474.08;514424;1090;115815;-53
2021/07/19 23:27:14;;;;;;;11.57;5.87;;;;;;;15.74;61.37;99467.79;513887;1089;116385;-57
2021/07/19 23:37:21;;;;;;;13.53;7.10;;;;;;;15.54;61.83;99470.36;513123;1088;116348;-56
2021/07/19 23:47:28;;;;;;;9.30;4.90;;;;;;;15.32;63.05;99479.33;514131;1088;116084;-56
2021/07/19 23:57:34;;;;;;;16.97;6.93;;;;;;;15.17;63.99;99476.19;513492;1090;115931;-53
